Terminal Aerodrome Forecast
Issued by NWS

Home | Current Version | Previous Version | Text Only | Print | Product List | Glossary On
Versions: 1 2 3 4 5 6 7 8 9 10 11 12 13 14 15 16 17 18 19 20 21 22 23 24 25
000
FTUS43 KGRR 070520
TAFLAN
TAF
KLAN 070520Z 0706/0806 14005KT 6SM BR SKC
     FM070800 14003KT 3SM BR SKC
      TEMPO 0709/0712 2SM BR
     FM071300 16006KT 6SM BR SKC
     FM071500 18011G18KT P6SM SCT060
     FM080000 18005KT P6SM SKC=

USA.gov is the U.S. government's official web portal to all federal, state and local government web resources and services.